Terminal Aerodrome Forecast
Issued by NWS

Home | Current Version | Previous Version | Text Only | Print | Product List | Glossary On
Versions: 1 2 3 4 5 6 7 8 9 10 11 12 13 14
000
FTUS42 TJSJ 021151 CCA
TAFJPS
TAF COR
TJPS 021151Z 0212/0312 05005KT P6SM VCSH FEW030 SCT090
      TEMPO 0212/0214 VRB10KT P6SM -SHRA SCT030 BKN060
     FM021700 13010KT P6SM VCTS SCT030CB SCT060 SCT090
     FM022330 08005KT P6SM SCT060
      AMD NOT SKED TIL 030300=

USA.gov is the U.S. government's official web portal to all federal, state and local government web resources and services.